FDX472 KDFW-KMEM
Flight info
| Callsign | FDX472 |
|---|---|
| Flight time | 0h 55m |
| Altitude | 33000 |
| Route | FORCK3 FORCK ELD HOBRK4 |
| Aircraft | MD11/H-SDE1E2E3FGHIJ2J3J4J5M1RWXY/LB1D1 |
Departure
| Time | 2026-05-01 13:19 |
|---|---|
| Airport | Dallas Fort Worth International Airport (KDFW) |
Arrival
| Time | 2026-05-01 14:15 |
|---|---|
| Airport | Memphis International Airport (KMEM) |
| Time | Latitude | Longitude | Altitude | Speed | Heading |
|---|---|---|---|---|---|
| 2026-05-01 12:55 | 32.89732 | -97.05993 | 600 ft | 0 kts | 360° |
| 2026-05-01 13:07 | 32.89718 | -97.05993 | 599 ft | 2 kts | 359° |
| 2026-05-01 13:08 | 32.89704 | -97.05994 | 599 ft | 2 kts | 11° |
| 2026-05-01 13:08 | 32.89690 | -97.05999 | 598 ft | 2 kts | 28° |
| 2026-05-01 13:08 | 32.89677 | -97.06009 | 597 ft | 2 kts | 42° |
| 2026-05-01 13:08 | 32.89668 | -97.06022 | 597 ft | 2 kts | 57° |
| 2026-05-01 13:09 | 32.89661 | -97.06037 | 596 ft | 2 kts | 71° |
| 2026-05-01 13:09 | 32.89658 | -97.06054 | 596 ft | 2 kts | 85° |
| 2026-05-01 13:09 | 32.89658 | -97.06062 | 596 ft | 1 kts | 91° |
| 2026-05-01 13:09 | 32.89658 | -97.06064 | 596 ft | 0 kts | 91° |
| 2026-05-01 13:11 | 32.89657 | -97.06048 | 596 ft | 4 kts | 90° |
| 2026-05-01 13:11 | 32.89658 | -97.05994 | 597 ft | 7 kts | 89° |
| 2026-05-01 13:11 | 32.89658 | -97.05929 | 600 ft | 8 kts | 90° |
| 2026-05-01 13:12 | 32.89658 | -97.05864 | 602 ft | 7 kts | 89° |
| 2026-05-01 13:12 | 32.89645 | -97.05808 | 604 ft | 7 kts | 145° |
| 2026-05-01 13:12 | 32.89574 | -97.05794 | 602 ft | 12 kts | 178° |
| 2026-05-01 13:12 | 32.89469 | -97.05793 | 600 ft | 17 kts | 180° |
| 2026-05-01 13:13 | 32.89351 | -97.05793 | 598 ft | 15 kts | 180° |
| 2026-05-01 13:13 | 32.89246 | -97.05793 | 596 ft | 15 kts | 180° |
| 2026-05-01 13:13 | 32.89144 | -97.05794 | 594 ft | 14 kts | 181° |
| 2026-05-01 13:13 | 32.89041 | -97.05795 | 592 ft | 14 kts | 180° |
| 2026-05-01 13:14 | 32.88937 | -97.05796 | 590 ft | 15 kts | 180° |
| 2026-05-01 13:14 | 32.88826 | -97.05798 | 588 ft | 16 kts | 180° |
| 2026-05-01 13:14 | 32.88709 | -97.05798 | 585 ft | 17 kts | 180° |
| 2026-05-01 13:14 | 32.88585 | -97.05798 | 583 ft | 17 kts | 180° |
| 2026-05-01 13:15 | 32.88473 | -97.05798 | 581 ft | 15 kts | 180° |
| 2026-05-01 13:15 | 32.88376 | -97.05798 | 581 ft | 14 kts | 180° |
| 2026-05-01 13:15 | 32.88272 | -97.05798 | 580 ft | 15 kts | 180° |
| 2026-05-01 13:15 | 32.88165 | -97.05800 | 578 ft | 15 kts | 180° |
| 2026-05-01 13:16 | 32.88068 | -97.05800 | 575 ft | 11 kts | 180° |
| 2026-05-01 13:16 | 32.87986 | -97.05801 | 574 ft | 13 kts | 180° |
| 2026-05-01 13:16 | 32.87909 | -97.05745 | 572 ft | 15 kts | 99° |
| 2026-05-01 13:17 | 32.87911 | -97.05308 | 569 ft | 12 kts | 90° |
| 2026-05-01 13:17 | 32.87911 | -97.05205 | 569 ft | 8 kts | 90° |
| 2026-05-01 13:18 | 32.87967 | -97.05089 | 572 ft | 8 kts | 351° |
| 2026-05-01 13:18 | 32.88042 | -97.05094 | 573 ft | 15 kts | 359° |
| 2026-05-01 13:18 | 32.88385 | -97.05093 | 579 ft | 90 kts | 360° |
| 2026-05-01 13:18 | 32.89279 | -97.05088 | 599 ft | 162 kts | 1° |
| 2026-05-01 13:19 | 32.90503 | -97.05087 | 1073 ft | 181 kts | 2° |
| 2026-05-01 13:19 | 32.91714 | -97.05093 | 2014 ft | 177 kts | 5° |
| 2026-05-01 13:19 | 32.93996 | -97.04378 | 3735 ft | 175 kts | 27° |
| 2026-05-01 13:20 | 32.95146 | -97.03729 | 4311 ft | 195 kts | 29° |
| 2026-05-01 13:20 | 32.96435 | -97.02944 | 4905 ft | 218 kts | 28° |
| 2026-05-01 13:20 | 32.97860 | -97.02089 | 5603 ft | 241 kts | 27° |
| 2026-05-01 13:21 | 33.00788 | -96.99831 | 7644 ft | 268 kts | 49° |
| 2026-05-01 13:21 | 33.01723 | -96.97909 | 8744 ft | 280 kts | 71° |
| 2026-05-01 13:21 | 33.01968 | -96.95602 | 9828 ft | 292 kts | 90° |
| 2026-05-01 13:21 | 33.01783 | -96.93149 | 10583 ft | 317 kts | 96° |
| 2026-05-01 13:22 | 33.01432 | -96.90414 | 11176 ft | 346 kts | 97° |
| 2026-05-01 13:22 | 33.00964 | -96.87529 | 11722 ft | 376 kts | 102° |
| 2026-05-01 13:22 | 33.00191 | -96.84476 | 12590 ft | 394 kts | 109° |
| 2026-05-01 13:22 | 32.99110 | -96.81460 | 13595 ft | 406 kts | 114° |
| 2026-05-01 13:23 | 32.97866 | -96.78389 | 14581 ft | 418 kts | 117° |
| 2026-05-01 13:23 | 32.96563 | -96.75266 | 15587 ft | 428 kts | 119° |
| 2026-05-01 13:23 | 32.95237 | -96.72078 | 16536 ft | 439 kts | 120° |
| 2026-05-01 13:23 | 32.93908 | -96.68806 | 17431 ft | 450 kts | 121° |
| 2026-05-01 13:24 | 32.92553 | -96.65422 | 18316 ft | 460 kts | 122° |
| 2026-05-01 13:24 | 32.91166 | -96.61978 | 19342 ft | 466 kts | 122° |
| 2026-05-01 13:24 | 32.89768 | -96.58504 | 20319 ft | 472 kts | 122° |
| 2026-05-01 13:25 | 32.86929 | -96.51412 | 22186 ft | 484 kts | 121° |
| 2026-05-01 13:25 | 32.85473 | -96.47778 | 23117 ft | 489 kts | 121° |
| 2026-05-01 13:25 | 32.84021 | -96.44134 | 24020 ft | 494 kts | 122° |
| 2026-05-01 13:25 | 32.82527 | -96.40452 | 24874 ft | 500 kts | 123° |
| 2026-05-01 13:26 | 32.81069 | -96.36695 | 25672 ft | 511 kts | 119° |
| 2026-05-01 13:26 | 32.80056 | -96.32615 | 26439 ft | 529 kts | 107° |
| 2026-05-01 13:26 | 32.79738 | -96.28257 | 27235 ft | 545 kts | 95° |
| 2026-05-01 13:26 | 32.80099 | -96.23690 | 28044 ft | 557 kts | 85° |
| 2026-05-01 13:27 | 32.80785 | -96.19167 | 28641 ft | 567 kts | 83° |
| 2026-05-01 13:27 | 32.81537 | -96.14356 | 29377 ft | 574 kts | 85° |
| 2026-05-01 13:27 | 32.82682 | -96.04979 | 31186 ft | 576 kts | 88° |
| 2026-05-01 13:28 | 32.83604 | -95.95566 | 32884 ft | 572 kts | 89° |
| 2026-05-01 13:28 | 32.84060 | -95.90914 | 32902 ft | 570 kts | 89° |
| 2026-05-01 13:29 | 32.85909 | -95.72091 | 33022 ft | 567 kts | 89° |
| 2026-05-01 13:31 | 32.88636 | -95.42972 | 33047 ft | 568 kts | 88° |
| 2026-05-01 13:32 | 32.90892 | -95.19797 | 33045 ft | 564 kts | 89° |
| 2026-05-01 13:33 | 32.93177 | -94.96705 | 33060 ft | 564 kts | 89° |
| 2026-05-01 13:34 | 32.95007 | -94.78226 | 33042 ft | 565 kts | 90° |
| 2026-05-01 13:35 | 32.96224 | -94.64294 | 33062 ft | 566 kts | 89° |
| 2026-05-01 13:36 | 32.97479 | -94.50350 | 33072 ft | 567 kts | 88° |
| 2026-05-01 13:36 | 32.98778 | -94.36382 | 33085 ft | 567 kts | 89° |
| 2026-05-01 13:37 | 32.99643 | -94.27049 | 33057 ft | 568 kts | 87° |
| 2026-05-01 13:37 | 33.01116 | -94.17854 | 33063 ft | 572 kts | 81° |
| 2026-05-01 13:38 | 33.03630 | -94.03920 | 33069 ft | 573 kts | 82° |
| 2026-05-01 13:39 | 33.05197 | -93.94558 | 33070 ft | 574 kts | 82° |
| 2026-05-01 13:39 | 33.06773 | -93.85224 | 33074 ft | 574 kts | 82° |
| 2026-05-01 13:40 | 33.08344 | -93.75944 | 33077 ft | 574 kts | 80° |
| 2026-05-01 13:40 | 33.09958 | -93.66576 | 33085 ft | 576 kts | 81° |
| 2026-05-01 13:41 | 33.11580 | -93.57226 | 33074 ft | 575 kts | 80° |
| 2026-05-01 13:41 | 33.13278 | -93.47363 | 33064 ft | 574 kts | 80° |
| 2026-05-01 13:42 | 33.14953 | -93.37546 | 33076 ft | 576 kts | 80° |
| 2026-05-01 13:42 | 33.16616 | -93.27532 | 33062 ft | 577 kts | 81° |
| 2026-05-01 13:43 | 33.18277 | -93.17608 | 33066 ft | 578 kts | 81° |
| 2026-05-01 13:43 | 33.19970 | -93.07564 | 33056 ft | 577 kts | 78° |
| 2026-05-01 13:43 | 33.21220 | -93.02737 | 33030 ft | 578 kts | 67° |
| 2026-05-01 13:44 | 33.22909 | -92.98096 | 33055 ft | 578 kts | 70° |
| 2026-05-01 13:44 | 33.24039 | -92.93050 | 33113 ft | 577 kts | 83° |
| 2026-05-01 13:44 | 33.24488 | -92.87946 | 33107 ft | 575 kts | 89° |
| 2026-05-01 13:45 | 33.25145 | -92.78479 | 33051 ft | 578 kts | 83° |
| 2026-05-01 13:45 | 33.26160 | -92.73552 | 33069 ft | 579 kts | 69° |
| 2026-05-01 13:45 | 33.27941 | -92.68888 | 33099 ft | 575 kts | 57° |
| 2026-05-01 13:45 | 33.30408 | -92.64665 | 33104 ft | 570 kts | 46° |
| 2026-05-01 13:46 | 33.33083 | -92.60803 | 33074 ft | 571 kts | 47° |
| 2026-05-01 13:46 | 33.38129 | -92.52845 | 33068 ft | 577 kts | 51° |
| 2026-05-01 13:47 | 33.42719 | -92.44802 | 33056 ft | 580 kts | 53° |
| 2026-05-01 13:47 | 33.47309 | -92.36673 | 33057 ft | 580 kts | 52° |
| 2026-05-01 13:48 | 33.51887 | -92.28746 | 33047 ft | 580 kts | 52° |
| 2026-05-01 13:48 | 33.56451 | -92.20800 | 33050 ft | 581 kts | 52° |
| 2026-05-01 13:49 | 33.61072 | -92.12801 | 33056 ft | 581 kts | 52° |
| 2026-05-01 13:49 | 33.65650 | -92.04851 | 33060 ft | 580 kts | 52° |
| 2026-05-01 13:50 | 33.70266 | -91.96873 | 33068 ft | 581 kts | 51° |
| 2026-05-01 13:50 | 33.74856 | -91.88935 | 33075 ft | 582 kts | 51° |
| 2026-05-01 13:51 | 33.79483 | -91.80845 | 33072 ft | 583 kts | 52° |
| 2026-05-01 13:51 | 33.84082 | -91.72680 | 32092 ft | 591 kts | 51° |
| 2026-05-01 13:51 | 33.86436 | -91.68539 | 31102 ft | 595 kts | 52° |
| 2026-05-01 13:52 | 33.88921 | -91.64195 | 29916 ft | 594 kts | 52° |
| 2026-05-01 13:52 | 33.91229 | -91.60100 | 28900 ft | 585 kts | 51° |
| 2026-05-01 13:52 | 33.93527 | -91.56168 | 28141 ft | 577 kts | 47° |
| 2026-05-01 13:52 | 33.96065 | -91.52449 | 27241 ft | 575 kts | 43° |
| 2026-05-01 13:53 | 33.98720 | -91.48882 | 26175 ft | 570 kts | 41° |
| 2026-05-01 13:53 | 34.04205 | -91.41617 | 24535 ft | 554 kts | 42° |
| 2026-05-01 13:53 | 34.06799 | -91.38087 | 23709 ft | 551 kts | 43° |
| 2026-05-01 13:54 | 34.09244 | -91.34690 | 22864 ft | 534 kts | 43° |
| 2026-05-01 13:54 | 34.11637 | -91.31354 | 22192 ft | 524 kts | 43° |
| 2026-05-01 13:54 | 34.14027 | -91.28031 | 21518 ft | 523 kts | 43° |
| 2026-05-01 13:54 | 34.16365 | -91.24784 | 21272 ft | 499 kts | 43° |
| 2026-05-01 13:55 | 34.18697 | -91.21548 | 21243 ft | 475 kts | 43° |
| 2026-05-01 13:55 | 34.20993 | -91.18421 | 20908 ft | 468 kts | 42° |
| 2026-05-01 13:55 | 34.23170 | -91.15459 | 20118 ft | 457 kts | 43° |
| 2026-05-01 13:55 | 34.25402 | -91.12353 | 19448 ft | 442 kts | 43° |
| 2026-05-01 13:56 | 34.27532 | -91.09370 | 18814 ft | 428 kts | 43° |
| 2026-05-01 13:56 | 34.29620 | -91.06443 | 18357 ft | 417 kts | 44° |
| 2026-05-01 13:56 | 34.31582 | -91.03700 | 17849 ft | 416 kts | 44° |
| 2026-05-01 13:56 | 34.33485 | -91.01049 | 17171 ft | 413 kts | 44° |
| 2026-05-01 13:57 | 34.35336 | -90.98471 | 16574 ft | 401 kts | 45° |
| 2026-05-01 13:57 | 34.36543 | -90.96784 | 16218 ft | 392 kts | 45° |
| 2026-05-01 13:57 | 34.38960 | -90.93400 | 15721 ft | 374 kts | 44° |
| 2026-05-01 13:57 | 34.40699 | -90.90979 | 15365 ft | 374 kts | 45° |
| 2026-05-01 13:58 | 34.42486 | -90.88500 | 14802 ft | 377 kts | 45° |
| 2026-05-01 13:58 | 34.44345 | -90.85915 | 14191 ft | 379 kts | 45° |
| 2026-05-01 13:58 | 34.46183 | -90.83355 | 13563 ft | 369 kts | 46° |
| 2026-05-01 13:58 | 34.47976 | -90.80845 | 13193 ft | 350 kts | 46° |
| 2026-05-01 13:59 | 34.49637 | -90.78513 | 12906 ft | 333 kts | 47° |
| 2026-05-01 13:59 | 34.51192 | -90.76153 | 12553 ft | 319 kts | 49° |
| 2026-05-01 13:59 | 34.52548 | -90.73959 | 12474 ft | 297 kts | 50° |
| 2026-05-01 13:59 | 34.53807 | -90.71880 | 12354 ft | 291 kts | 50° |
| 2026-05-01 14:00 | 34.55088 | -90.69772 | 11925 ft | 288 kts | 50° |
| 2026-05-01 14:00 | 34.56384 | -90.67667 | 11474 ft | 285 kts | 50° |
| 2026-05-01 14:00 | 34.57649 | -90.65631 | 11057 ft | 281 kts | 50° |
| 2026-05-01 14:00 | 34.58913 | -90.63599 | 10629 ft | 277 kts | 50° |
| 2026-05-01 14:01 | 34.60169 | -90.61556 | 10189 ft | 275 kts | 50° |
| 2026-05-01 14:01 | 34.61404 | -90.59551 | 9986 ft | 271 kts | 50° |
| 2026-05-01 14:01 | 34.62658 | -90.57529 | 9989 ft | 273 kts | 50° |
| 2026-05-01 14:01 | 34.63797 | -90.55459 | 9743 ft | 276 kts | 60° |
| 2026-05-01 14:02 | 34.64607 | -90.53168 | 9464 ft | 272 kts | 69° |
| 2026-05-01 14:02 | 34.65165 | -90.50935 | 9231 ft | 271 kts | 71° |
| 2026-05-01 14:02 | 34.65733 | -90.48625 | 8969 ft | 270 kts | 70° |
| 2026-05-01 14:02 | 34.66338 | -90.46401 | 8704 ft | 268 kts | 68° |
| 2026-05-01 14:03 | 34.67009 | -90.44160 | 8452 ft | 266 kts | 67° |
| 2026-05-01 14:03 | 34.67731 | -90.41875 | 8175 ft | 263 kts | 66° |
| 2026-05-01 14:03 | 34.68425 | -90.39687 | 7918 ft | 261 kts | 66° |
| 2026-05-01 14:03 | 34.69123 | -90.37457 | 7659 ft | 260 kts | 66° |
| 2026-05-01 14:04 | 34.69806 | -90.35262 | 7404 ft | 258 kts | 66° |
| 2026-05-01 14:04 | 34.70497 | -90.33036 | 7143 ft | 255 kts | 66° |
| 2026-05-01 14:04 | 34.71175 | -90.30854 | 6886 ft | 253 kts | 66° |
| 2026-05-01 14:04 | 34.71633 | -90.29383 | 6714 ft | 252 kts | 67° |
| 2026-05-01 14:05 | 34.72514 | -90.26555 | 6370 ft | 237 kts | 67° |
| 2026-05-01 14:05 | 34.73134 | -90.24569 | 5900 ft | 230 kts | 66° |
| 2026-05-01 14:05 | 34.73747 | -90.22607 | 5411 ft | 225 kts | 66° |
| 2026-05-01 14:05 | 34.74347 | -90.20689 | 4924 ft | 221 kts | 66° |
| 2026-05-01 14:06 | 34.74938 | -90.18802 | 4430 ft | 217 kts | 66° |
| 2026-05-01 14:06 | 34.75476 | -90.17090 | 3981 ft | 214 kts | 66° |
| 2026-05-01 14:06 | 34.76009 | -90.15385 | 3544 ft | 211 kts | 65° |
| 2026-05-01 14:06 | 34.76536 | -90.13699 | 3106 ft | 208 kts | 65° |
| 2026-05-01 14:07 | 34.77057 | -90.12045 | 2983 ft | 207 kts | 65° |
| 2026-05-01 14:07 | 34.77600 | -90.10316 | 2965 ft | 207 kts | 65° |
| 2026-05-01 14:07 | 34.78134 | -90.08613 | 2953 ft | 193 kts | 65° |
| 2026-05-01 14:08 | 34.79113 | -90.05484 | 3007 ft | 178 kts | 65° |
| 2026-05-01 14:08 | 34.79595 | -90.03976 | 3005 ft | 178 kts | 65° |
| 2026-05-01 14:08 | 34.80061 | -90.02505 | 3010 ft | 178 kts | 65° |
| 2026-05-01 14:08 | 34.80505 | -90.01079 | 2999 ft | 178 kts | 65° |
| 2026-05-01 14:09 | 34.80942 | -89.99675 | 2998 ft | 177 kts | 64° |
| 2026-05-01 14:09 | 34.81385 | -89.98280 | 2997 ft | 177 kts | 64° |
| 2026-05-01 14:09 | 34.82151 | -89.97177 | 2954 ft | 167 kts | 24° |
| 2026-05-01 14:09 | 34.83318 | -89.96819 | 3118 ft | 172 kts | 7° |
| 2026-05-01 14:10 | 34.84593 | -89.96775 | 2978 ft | 173 kts | 0° |
| 2026-05-01 14:10 | 34.85899 | -89.96844 | 2964 ft | 172 kts | 359° |
| 2026-05-01 14:10 | 34.87199 | -89.96925 | 2967 ft | 173 kts | 359° |
| 2026-05-01 14:10 | 34.88419 | -89.96983 | 2982 ft | 162 kts | 0° |
| 2026-05-01 14:11 | 34.89506 | -89.97014 | 2787 ft | 153 kts | 1° |
| 2026-05-01 14:11 | 34.91575 | -89.97038 | 2437 ft | 147 kts | 1° |
| 2026-05-01 14:11 | 34.92607 | -89.97049 | 2231 ft | 146 kts | 1° |
| 2026-05-01 14:12 | 34.93609 | -89.97066 | 2038 ft | 141 kts | 1° |
| 2026-05-01 14:12 | 34.94581 | -89.97088 | 1878 ft | 140 kts | 1° |
| 2026-05-01 14:12 | 34.95558 | -89.97102 | 1669 ft | 138 kts | 2° |
| 2026-05-01 14:12 | 34.96529 | -89.97116 | 1516 ft | 142 kts | 1° |
| 2026-05-01 14:13 | 34.97548 | -89.97137 | 1292 ft | 145 kts | 1° |
| 2026-05-01 14:13 | 34.98209 | -89.97143 | 1196 ft | 145 kts | 1° |
| 2026-05-01 14:13 | 34.99571 | -89.97186 | 902 ft | 143 kts | 0° |
| 2026-05-01 14:13 | 35.00574 | -89.97203 | 727 ft | 147 kts | 0° |
| 2026-05-01 14:14 | 35.01592 | -89.97223 | 509 ft | 146 kts | 360° |
| 2026-05-01 14:14 | 35.02609 | -89.97246 | 330 ft | 147 kts | 359° |
| 2026-05-01 14:14 | 35.03574 | -89.97272 | 313 ft | 105 kts | 359° |
| 2026-05-01 14:14 | 35.04042 | -89.97276 | 302 ft | 50 kts | 358° |
| 2026-05-01 14:15 | 35.04314 | -89.97282 | 295 ft | 31 kts | 358° |
| 2026-05-01 14:15 | 35.04494 | -89.97329 | 292 ft | 25 kts | 335° |
| 2026-05-01 14:15 | 35.04582 | -89.97392 | 292 ft | 0 kts | 320° |
| 2026-05-01 14:15 | 35.04593 | -89.97404 | 292 ft | 6 kts | 320° |
| 2026-05-01 14:16 | 35.04644 | -89.97450 | 292 ft | 11 kts | 331° |
| 2026-05-01 14:16 | 35.04736 | -89.97472 | 290 ft | 16 kts | 0° |
| 2026-05-01 14:16 | 35.04859 | -89.97471 | 288 ft | 16 kts | 359° |
| 2026-05-01 14:16 | 35.04986 | -89.97472 | 286 ft | 19 kts | 359° |
| 2026-05-01 14:17 | 35.05102 | -89.97474 | 283 ft | 18 kts | 359° |
| 2026-05-01 14:17 | 35.05215 | -89.97478 | 281 ft | 12 kts | 358° |
| 2026-05-01 14:17 | 35.05306 | -89.97481 | 279 ft | 8 kts | 359° |
| 2026-05-01 14:17 | 35.05324 | -89.97481 | 279 ft | 0 kts | 359° |
| 2026-05-01 14:18 | 35.05327 | -89.97481 | 279 ft | 2 kts | 359° |
| 2026-05-01 14:19 | 35.05425 | -89.97482 | 277 ft | 17 kts | 360° |
| 2026-05-01 14:19 | 35.05560 | -89.97485 | 273 ft | 18 kts | 359° |
| 2026-05-01 14:19 | 35.05689 | -89.97484 | 269 ft | 17 kts | 2° |
| 2026-05-01 14:19 | 35.05810 | -89.97481 | 267 ft | 18 kts | 356° |
| 2026-05-01 14:20 | 35.05939 | -89.97519 | 266 ft | 18 kts | 345° |
| 2026-05-01 14:20 | 35.06169 | -89.97540 | 263 ft | 14 kts | 0° |
| 2026-05-01 14:20 | 35.06242 | -89.97540 | 261 ft | 5 kts | 360° |
| 2026-05-01 14:21 | 35.06261 | -89.97555 | 261 ft | 3 kts | 295° |
| 2026-05-01 14:21 | 35.06268 | -89.97588 | 261 ft | 3 kts | 273° |
| 2026-05-01 14:21 | 35.06270 | -89.97619 | 261 ft | 1 kts | 272° |
| 2026-05-01 14:22 | 35.06270 | -89.97620 | 260 ft | 0 kts | 272° |